sensor_id;sensor_type;location;lat;lon;timestamp;P1;P2;P0
44933;PMS3003;30667;43.614;1.442;2023-04-24T00:00:12;3.25;2.75;1.00
44933;PMS3003;30667;43.614;1.442;2023-04-24T00:02:39;3.40;3.40;1.00
44933;PMS3003;30667;43.614;1.442;2023-04-24T00:05:06;3.40;2.60;1.00
44933;PMS3003;30667;43.614;1.442;2023-04-24T00:07:33;2.80;2.80;0.80
44933;PMS3003;30667;43.614;1.442;2023-04-24T00:09:59;5.20;3.20;1.00
44933;PMS3003;30667;43.614;1.442;2023-04-24T00:12:25;5.00;4.75;1.00
44933;PMS3003;30667;43.614;1.442;2023-04-24T00:14:51;3.00;3.00;1.00
44933;PMS3003;30667;43.614;1.442;2023-04-24T00:17:16;4.75;3.00;1.00
44933;PMS3003;30667;43.614;1.442;2023-04-24T00:19:45;5.40;5.40;2.00
44933;PMS3003;30667;43.614;1.442;2023-04-24T00:22:10;5.60;5.40;2.00
44933;PMS3003;30667;43.614;1.442;2023-04-24T00:24:38;6.60;6.20;2.40
44933;PMS3003;30667;43.614;1.442;2023-04-24T00:27:03;6.75;6.00;2.00
44933;PMS3003;30667;43.614;1.442;2023-04-24T00:29:29;6.50;6.00;2.00
44933;PMS3003;30667;43.614;1.442;2023-04-24T00:31:54;6.00;5.00;2.00
44933;PMS3003;30667;43.614;1.442;2023-04-24T00:34:20;7.00;7.00;2.50
44933;PMS3003;30667;43.614;1.442;2023-04-24T00:36:45;7.50;6.50;2.00
44933;PMS3003;30667;43.614;1.442;2023-04-24T00:39:11;5.00;3.00;1.00
44933;PMS3003;30667;43.614;1.442;2023-04-24T00:41:36;7.25;6.50;2.00
44933;PMS3003;30667;43.614;1.442;2023-04-24T00:44:02;6.00;6.00;2.25
44933;PMS3003;30667;43.614;1.442;2023-04-24T00:46:27;7.00;6.50;2.00
44933;PMS3003;30667;43.614;1.442;2023-04-24T00:48:53;5.00;5.00;2.00
44933;PMS3003;30667;43.614;1.442;2023-04-24T00:51:20;9.00;7.40;3.40
44933;PMS3003;30667;43.614;1.442;2023-04-24T00:53:45;11.00;10.75;5.00
44933;PMS3003;30667;43.614;1.442;2023-04-24T00:56:11;8.50;7.50;3.50
44933;PMS3003;30667;43.614;1.442;2023-04-24T00:58:36;14.50;12.00;6.00
44933;PMS3003;30667;43.614;1.442;2023-04-24T01:01:02;15.50;12.75;7.00
44933;PMS3003;30667;43.614;1.442;2023-04-24T01:03:32;14.80;11.80;6.00
44933;PMS3003;30667;43.614;1.442;2023-04-24T01:05:58;10.00;10.00;6.00
44933;PMS3003;30667;43.614;1.442;2023-04-24T01:08:24;12.00;11.00;5.00
44933;PMS3003;30667;43.614;1.442;2023-04-24T01:10:52;13.60;10.80;5.20
44933;PMS3003;30667;43.614;1.442;2023-04-24T01:13:18;10.75;10.50;5.25
44933;PMS3003;30667;43.614;1.442;2023-04-24T01:15:44;9.20;8.40;3.00
44933;PMS3003;30667;43.614;1.442;2023-04-24T01:18:10;8.00;7.80;3.00
44933;PMS3003;30667;43.614;1.442;2023-04-24T01:20:36;8.25;7.00;3.00
44933;PMS3003;30667;43.614;1.442;2023-04-24T01:23:05;7.40;7.20;2.00
44933;PMS3003;30667;43.614;1.442;2023-04-24T01:25:31;7.00;6.80;3.00
44933;PMS3003;30667;43.614;1.442;2023-04-24T01:27:56;6.80;6.40;2.60
44933;PMS3003;30667;43.614;1.442;2023-04-24T01:30:22;8.25;7.25;2.25
44933;PMS3003;30667;43.614;1.442;2023-04-24T01:32:47;8.00;7.00;2.00
44933;PMS3003;30667;43.614;1.442;2023-04-24T01:35:13;6.00;6.00;2.25
44933;PMS3003;30667;43.614;1.442;2023-04-24T01:37:39;7.60;6.00;2.00
44933;PMS3003;30667;43.614;1.442;2023-04-24T01:40:05;6.00;6.00;2.00
44933;PMS3003;30667;43.614;1.442;2023-04-24T01:42:31;5.60;5.60;2.00
44933;PMS3003;30667;43.614;1.442;2023-04-24T01:44:57;6.25;3.50;1.25
44933;PMS3003;30667;43.614;1.442;2023-04-24T01:47:23;5.00;5.00;1.80
44933;PMS3003;30667;43.614;1.442;2023-04-24T01:49:49;6.00;5.80;2.00
44933;PMS3003;30667;43.614;1.442;2023-04-24T01:52:15;6.00;5.00;1.00
44933;PMS3003;30667;43.614;1.442;2023-04-24T01:54:42;3.80;2.00;0.00
44933;PMS3003;30667;43.614;1.442;2023-04-24T01:57:08;3.00;3.00;1.00
44933;PMS3003;30667;43.614;1.442;2023-04-24T01:59:33;3.00;3.00;0.75
44933;PMS3003;30667;43.614;1.442;2023-04-24T02:01:59;5.60;5.40;1.00
44933;PMS3003;30667;43.614;1.442;2023-04-24T02:04:25;5.00;5.00;1.00
44933;PMS3003;30667;43.614;1.442;2023-04-24T02:06:50;3.00;3.00;1.00
44933;PMS3003;30667;43.614;1.442;2023-04-24T02:09:16;3.50;2.75;0.00
44933;PMS3003;30667;43.614;1.442;2023-04-24T02:11:41;4.00;3.00;1.00
44933;PMS3003;30667;43.614;1.442;2023-04-24T02:14:06;4.50;4.50;2.00
44933;PMS3003;30667;43.614;1.442;2023-04-24T02:16:32;5.00;2.75;0.75
44933;PMS3003;30667;43.614;1.442;2023-04-24T02:18:58;5.50;3.00;1.00
44933;PMS3003;30667;43.614;1.442;2023-04-24T02:21:23;5.00;3.00;1.00
44933;PMS3003;30667;43.614;1.442;2023-04-24T02:23:49;4.50;3.00;1.00
44933;PMS3003;30667;43.614;1.442;2023-04-24T02:26:14;3.50;3.00;1.00
44933;PMS3003;30667;43.614;1.442;2023-04-24T02:28:40;2.00;2.00;0.00
44933;PMS3003;30667;43.614;1.442;2023-04-24T02:31:05;5.00;3.00;0.75
44933;PMS3003;30667;43.614;1.442;2023-04-24T02:33:31;5.75;5.00;1.00
44933;PMS3003;30667;43.614;1.442;2023-04-24T02:35:57;3.00;2.75;1.00
44933;PMS3003;30667;43.614;1.442;2023-04-24T02:38:22;6.75;3.50;1.00
44933;PMS3003;30667;43.614;1.442;2023-04-24T02:40:47;5.00;5.00;1.00
44933;PMS3003;30667;43.614;1.442;2023-04-24T02:43:13;3.00;2.25;0.00
44933;PMS3003;30667;43.614;1.442;2023-04-24T02:45:38;4.50;3.00;0.75
44933;PMS3003;30667;43.614;1.442;2023-04-24T02:48:04;3.00;3.00;1.00
44933;PMS3003;30667;43.614;1.442;2023-04-24T02:50:29;3.00;3.00;1.00
44933;PMS3003;30667;43.614;1.442;2023-04-24T02:52:54;2.75;2.00;1.00
44933;PMS3003;30667;43.614;1.442;2023-04-24T02:55:20;3.00;3.00;1.00
44933;PMS3003;30667;43.614;1.442;2023-04-24T02:57:45;3.00;2.00;0.00
44933;PMS3003;30667;43.614;1.442;2023-04-24T03:00:11;6.00;3.00;1.00
44933;PMS3003;30667;43.614;1.442;2023-04-24T03:02:36;3.80;3.00;1.00
44933;PMS3003;30667;43.614;1.442;2023-04-24T03:05:02;2.50;2.00;0.25
44933;PMS3003;30667;43.614;1.442;2023-04-24T03:07:29;5.00;3.00;1.00
44933;PMS3003;30667;43.614;1.442;2023-04-24T03:09:55;2.80;2.00;0.00
44933;PMS3003;30667;43.614;1.442;2023-04-24T03:12:23;2.00;2.00;1.00
44933;PMS3003;30667;43.614;1.442;2023-04-24T03:14:48;4.20;3.40;1.00
44933;PMS3003;30667;43.614;1.442;2023-04-24T03:17:14;5.00;3.00;0.00
44933;PMS3003;30667;43.614;1.442;2023-04-24T03:19:39;1.75;1.75;0.00
44933;PMS3003;30667;43.614;1.442;2023-04-24T03:22:05;3.40;2.40;0.40
44933;PMS3003;30667;43.614;1.442;2023-04-24T03:24:31;3.00;3.00;0.00
44933;PMS3003;30667;43.614;1.442;2023-04-24T03:26:56;5.25;1.75;0.00
44933;PMS3003;30667;43.614;1.442;2023-04-24T03:29:22;3.00;2.50;0.75
44933;PMS3003;30667;43.614;1.442;2023-04-24T03:31:48;2.00;2.00;0.00
44933;PMS3003;30667;43.614;1.442;2023-04-24T03:34:13;3.50;3.00;0.75
44933;PMS3003;30667;43.614;1.442;2023-04-24T03:36:39;4.00;2.25;0.00
44933;PMS3003;30667;43.614;1.442;2023-04-24T03:39:04;3.00;3.00;1.00
44933;PMS3003;30667;43.614;1.442;2023-04-24T03:41:30;3.00;2.00;0.00
44933;PMS3003;30667;43.614;1.442;2023-04-24T03:43:55;5.50;3.00;1.00
44933;PMS3003;30667;43.614;1.442;2023-04-24T03:46:21;4.75;3.00;0.75
44933;PMS3003;30667;43.614;1.442;2023-04-24T03:48:46;3.00;2.00;0.00
44933;PMS3003;30667;43.614;1.442;2023-04-24T03:51:12;6.00;4.00;1.00
44933;PMS3003;30667;43.614;1.442;2023-04-24T03:53:37;1.75;1.75;0.75
44933;PMS3003;30667;43.614;1.442;2023-04-24T03:56:03;3.00;2.75;0.00
44933;PMS3003;30667;43.614;1.442;2023-04-24T03:58:28;3.00;2.00;0.00
44933;PMS3003;30667;43.614;1.442;2023-04-24T04:00:53;2.00;2.00;0.00
44933;PMS3003;30667;43.614;1.442;2023-04-24T04:03:19;4.00;3.00;1.00
44933;PMS3003;30667;43.614;1.442;2023-04-24T04:05:44;2.00;2.00;0.50
44933;PMS3003;30667;43.614;1.442;2023-04-24T04:08:10;3.00;2.50;0.50
44933;PMS3003;30667;43.614;1.442;2023-04-24T04:10:35;3.50;3.50;1.00
44933;PMS3003;30667;43.614;1.442;2023-04-24T04:13:01;2.75;2.25;0.50
44933;PMS3003;30667;43.614;1.442;2023-04-24T04:15:26;5.00;3.00;1.00
44933;PMS3003;30667;43.614;1.442;2023-04-24T04:17:51;2.00;2.00;0.00
44933;PMS3003;30667;43.614;1.442;2023-04-24T04:20:17;3.00;2.75;1.00
44933;PMS3003;30667;43.614;1.442;2023-04-24T04:22:42;4.50;4.00;0.00
44933;PMS3003;30667;43.614;1.442;2023-04-24T04:25:08;3.00;3.00;0.50
44933;PMS3003;30667;43.614;1.442;2023-04-24T04:27:33;4.00;3.00;0.00
44933;PMS3003;30667;43.614;1.442;2023-04-24T04:29:59;3.40;3.00;0.00
44933;PMS3003;30667;43.614;1.442;2023-04-24T04:32:32;2.00;2.00;1.00
44933;PMS3003;30667;43.614;1.442;2023-04-24T04:34:59;2.80;2.80;0.40
44933;PMS3003;30667;43.614;1.442;2023-04-24T04:37:28;2.40;2.40;1.00
44933;PMS3003;30667;43.614;1.442;2023-04-24T04:39:54;2.00;2.00;0.80
44933;PMS3003;30667;43.614;1.442;2023-04-24T04:42:20;2.00;2.00;0.25
44933;PMS3003;30667;43.614;1.442;2023-04-24T04:44:45;5.00;5.00;1.00
44933;PMS3003;30667;43.614;1.442;2023-04-24T04:47:11;3.75;2.75;0.00
44933;PMS3003;30667;43.614;1.442;2023-04-24T04:49:37;3.50;3.00;0.50
44933;PMS3003;30667;43.614;1.442;2023-04-24T04:52:03;2.40;2.00;0.20
44933;PMS3003;30667;43.614;1.442;2023-04-24T04:54:29;5.00;3.00;0.25
44933;PMS3003;30667;43.614;1.442;2023-04-24T04:56:54;3.00;3.00;0.75
44933;PMS3003;30667;43.614;1.442;2023-04-24T04:59:20;3.80;3.40;1.60
44933;PMS3003;30667;43.614;1.442;2023-04-24T05:01:45;5.00;3.00;1.00
44933;PMS3003;30667;43.614;1.442;2023-04-24T05:04:11;1.50;1.50;0.00
44933;PMS3003;30667;43.614;1.442;2023-04-24T05:06:36;2.75;2.75;1.00
44933;PMS3003;30667;43.614;1.442;2023-04-24T05:09:02;3.00;3.00;1.00
44933;PMS3003;30667;43.614;1.442;2023-04-24T05:11:28;3.80;2.60;0.60
44933;PMS3003;30667;43.614;1.442;2023-04-24T05:13:54;2.20;2.00;0.00
44933;PMS3003;30667;43.614;1.442;2023-04-24T05:16:20;2.00;2.00;0.00
44933;PMS3003;30667;43.614;1.442;2023-04-24T05:18:45;2.00;2.00;0.50
44933;PMS3003;30667;43.614;1.442;2023-04-24T05:21:11;5.00;4.50;0.75
44933;PMS3003;30667;43.614;1.442;2023-04-24T05:23:36;6.00;5.00;1.00
44933;PMS3003;30667;43.614;1.442;2023-04-24T05:26:01;5.00;4.50;0.00
44933;PMS3003;30667;43.614;1.442;2023-04-24T05:28:27;3.00;3.00;1.00
44933;PMS3003;30667;43.614;1.442;2023-04-24T05:30:55;3.80;3.00;0.80
44933;PMS3003;30667;43.614;1.442;2023-04-24T05:33:21;5.00;3.00;1.00
44933;PMS3003;30667;43.614;1.442;2023-04-24T05:35:47;4.60;3.00;0.80
44933;PMS3003;30667;43.614;1.442;2023-04-24T05:38:13;5.40;3.00;1.00
44933;PMS3003;30667;43.614;1.442;2023-04-24T05:40:39;2.40;2.00;0.40
44933;PMS3003;30667;43.614;1.442;2023-04-24T05:43:05;5.75;3.00;1.00
44933;PMS3003;30667;43.614;1.442;2023-04-24T05:45:30;4.25;2.50;0.00
44933;PMS3003;30667;43.614;1.442;2023-04-24T05:47:56;5.00;3.00;0.00
44933;PMS3003;30667;43.614;1.442;2023-04-24T05:50:22;3.50;2.00;0.00
44933;PMS3003;30667;43.614;1.442;2023-04-24T05:52:47;3.00;3.00;1.00
44933;PMS3003;30667;43.614;1.442;2023-04-24T05:55:12;2.75;2.75;0.00
44933;PMS3003;30667;43.614;1.442;2023-04-24T05:57:38;3.00;2.00;0.00
44933;PMS3003;30667;43.614;1.442;2023-04-24T06:00:04;5.00;3.50;1.00
44933;PMS3003;30667;43.614;1.442;2023-04-24T06:02:30;4.20;2.20;1.00
44933;PMS3003;30667;43.614;1.442;2023-04-24T06:04:58;4.20;3.00;1.00
44933;PMS3003;30667;43.614;1.442;2023-04-24T06:07:24;4.20;3.40;0.20
44933;PMS3003;30667;43.614;1.442;2023-04-24T06:09:51;3.00;3.00;0.00
44933;PMS3003;30667;43.614;1.442;2023-04-24T06:12:17;4.00;4.00;0.00
44933;PMS3003;30667;43.614;1.442;2023-04-24T06:14:42;2.00;2.00;0.00
44933;PMS3003;30667;43.614;1.442;2023-04-24T06:17:08;2.00;2.00;0.00
44933;PMS3003;30667;43.614;1.442;2023-04-24T06:19:33;5.50;3.00;1.00
44933;PMS3003;30667;43.614;1.442;2023-04-24T06:21:59;2.00;2.00;1.00
44933;PMS3003;30667;43.614;1.442;2023-04-24T06:24:27;6.75;5.00;1.00
44933;PMS3003;30667;43.614;1.442;2023-04-24T06:26:53;3.00;2.40;0.40
44933;PMS3003;30667;43.614;1.442;2023-04-24T06:29:19;8.25;4.00;0.00
44933;PMS3003;30667;43.614;1.442;2023-04-24T06:31:44;2.00;1.75;0.00
44933;PMS3003;30667;43.614;1.442;2023-04-24T06:34:10;5.00;3.00;1.00
44933;PMS3003;30667;43.614;1.442;2023-04-24T06:36:35;2.00;2.00;0.00
44933;PMS3003;30667;43.614;1.442;2023-04-24T06:39:01;3.25;3.00;1.00
44933;PMS3003;30667;43.614;1.442;2023-04-24T06:41:27;5.00;3.00;0.00
44933;PMS3003;30667;43.614;1.442;2023-04-24T06:43:53;5.40;3.00;1.00
44933;PMS3003;30667;43.614;1.442;2023-04-24T06:46:19;4.50;4.50;1.00
44933;PMS3003;30667;43.614;1.442;2023-04-24T06:48:47;3.80;3.00;1.00
44933;PMS3003;30667;43.614;1.442;2023-04-24T06:51:12;5.25;5.00;1.00
44933;PMS3003;30667;43.614;1.442;2023-04-24T06:53:37;3.00;2.25;0.00
44933;PMS3003;30667;43.614;1.442;2023-04-24T06:56:03;6.00;4.00;1.00
44933;PMS3003;30667;43.614;1.442;2023-04-24T06:58:29;4.20;3.00;1.00
44933;PMS3003;30667;43.614;1.442;2023-04-24T07:00:55;5.40;4.40;1.00
44933;PMS3003;30667;43.614;1.442;2023-04-24T07:03:21;5.00;3.75;1.00
44933;PMS3003;30667;43.614;1.442;2023-04-24T07:05:46;7.00;3.00;0.00
44933;PMS3003;30667;43.614;1.442;2023-04-24T07:08:12;5.20;3.60;1.00
44933;PMS3003;30667;43.614;1.442;2023-04-24T07:10:38;3.00;3.00;1.00
44933;PMS3003;30667;43.614;1.442;2023-04-24T07:13:04;3.00;3.00;1.00
44933;PMS3003;30667;43.614;1.442;2023-04-24T07:15:29;3.75;3.00;1.00
44933;PMS3003;30667;43.614;1.442;2023-04-24T07:17:55;3.00;2.00;1.00
44933;PMS3003;30667;43.614;1.442;2023-04-24T07:20:21;4.50;2.00;0.00
44933;PMS3003;30667;43.614;1.442;2023-04-24T07:22:46;4.25;2.75;0.00
44933;PMS3003;30667;43.614;1.442;2023-04-24T07:25:13;2.40;2.00;0.00
44933;PMS3003;30667;43.614;1.442;2023-04-24T07:27:38;4.00;2.00;0.00
44933;PMS3003;30667;43.614;1.442;2023-04-24T07:30:04;2.00;2.00;0.00
44933;PMS3003;30667;43.614;1.442;2023-04-24T07:32:30;2.00;2.00;0.00
44933;PMS3003;30667;43.614;1.442;2023-04-24T07:34:56;3.00;3.00;1.00
44933;PMS3003;30667;43.614;1.442;2023-04-24T07:37:21;4.00;3.00;0.75
44933;PMS3003;30667;43.614;1.442;2023-04-24T07:39:47;2.40;2.40;0.80
44933;PMS3003;30667;43.614;1.442;2023-04-24T07:42:13;2.25;2.25;0.00
44933;PMS3003;30667;43.614;1.442;2023-04-24T07:44:38;2.75;1.50;0.00
44933;PMS3003;30667;43.614;1.442;2023-04-24T07:47:03;2.00;2.00;0.00
44933;PMS3003;30667;43.614;1.442;2023-04-24T07:49:29;2.00;2.00;0.00
44933;PMS3003;30667;43.614;1.442;2023-04-24T07:51:54;0.50;0.50;0.00
44933;PMS3003;30667;43.614;1.442;2023-04-24T07:54:20;2.00;2.00;0.00
44933;PMS3003;30667;43.614;1.442;2023-04-24T07:56:45;2.00;2.00;0.00
44933;PMS3003;30667;43.614;1.442;2023-04-24T07:59:11;1.00;1.00;0.00
44933;PMS3003;30667;43.614;1.442;2023-04-24T08:01:36;1.75;1.25;0.00
44933;PMS3003;30667;43.614;1.442;2023-04-24T08:04:02;2.00;2.00;0.00
44933;PMS3003;30667;43.614;1.442;2023-04-24T08:06:28;1.75;1.75;0.00
44933;PMS3003;30667;43.614;1.442;2023-04-24T08:08:55;1.00;1.00;0.00
44933;PMS3003;30667;43.614;1.442;2023-04-24T08:11:21;1.00;1.00;0.00
44933;PMS3003;30667;43.614;1.442;2023-04-24T08:13:46;2.00;2.00;0.00
44933;PMS3003;30667;43.614;1.442;2023-04-24T08:16:12;0.75;0.75;0.00
44933;PMS3003;30667;43.614;1.442;2023-04-24T08:18:37;1.00;1.00;0.00
44933;PMS3003;30667;43.614;1.442;2023-04-24T08:21:03;1.00;1.00;0.00
44933;PMS3003;30667;43.614;1.442;2023-04-24T08:23:29;1.50;1.00;0.00
44933;PMS3003;30667;43.614;1.442;2023-04-24T08:25:54;2.00;2.00;0.00
44933;PMS3003;30667;43.614;1.442;2023-04-24T08:28:20;2.00;1.00;0.00
44933;PMS3003;30667;43.614;1.442;2023-04-24T08:30:46;2.25;1.75;0.00
44933;PMS3003;30667;43.614;1.442;2023-04-24T08:33:12;2.00;2.00;0.00
44933;PMS3003;30667;43.614;1.442;2023-04-24T08:35:38;0.80;0.80;0.00
44933;PMS3003;30667;43.614;1.442;2023-04-24T08:38:03;2.80;2.00;0.00
44933;PMS3003;30667;43.614;1.442;2023-04-24T08:40:29;0.75;0.75;0.00
44933;PMS3003;30667;43.614;1.442;2023-04-24T08:42:59;2.00;2.00;0.00
44933;PMS3003;30667;43.614;1.442;2023-04-24T08:45:25;2.60;2.00;0.00
44933;PMS3003;30667;43.614;1.442;2023-04-24T08:47:51;2.00;1.00;0.00
44933;PMS3003;30667;43.614;1.442;2023-04-24T08:50:19;1.00;1.00;0.00
44933;PMS3003;30667;43.614;1.442;2023-04-24T08:52:45;2.40;2.00;0.00
44933;PMS3003;30667;43.614;1.442;2023-04-24T08:55:14;1.00;1.00;0.00
44933;PMS3003;30667;43.614;1.442;2023-04-24T08:57:41;1.40;1.00;0.00
44933;PMS3003;30667;43.614;1.442;2023-04-24T09:00:10;2.40;2.20;0.00
44933;PMS3003;30667;43.614;1.442;2023-04-24T09:02:35;2.80;2.00;0.00
44933;PMS3003;30667;43.614;1.442;2023-04-24T09:05:01;0.00;0.00;0.00
44933;PMS3003;30667;43.614;1.442;2023-04-24T09:07:28;1.00;1.00;0.00
44933;PMS3003;30667;43.614;1.442;2023-04-24T09:09:58;1.00;1.00;0.00
44933;PMS3003;30667;43.614;1.442;2023-04-24T09:12:24;1.00;1.00;0.00
44933;PMS3003;30667;43.614;1.442;2023-04-24T09:14:50;2.00;1.00;0.00
44933;PMS3003;30667;43.614;1.442;2023-04-24T09:17:16;2.40;1.00;0.00
44933;PMS3003;30667;43.614;1.442;2023-04-24T09:19:41;1.25;1.25;0.00
44933;PMS3003;30667;43.614;1.442;2023-04-24T09:22:07;2.00;1.00;0.00
44933;PMS3003;30667;43.614;1.442;2023-04-24T09:24:33;1.80;1.80;0.00
44933;PMS3003;30667;43.614;1.442;2023-04-24T09:26:59;1.20;1.20;0.00
44933;PMS3003;30667;43.614;1.442;2023-04-24T09:29:29;1.00;1.00;0.00
44933;PMS3003;30667;43.614;1.442;2023-04-24T09:31:54;2.00;1.00;0.00
44933;PMS3003;30667;43.614;1.442;2023-04-24T09:34:23;1.00;1.00;0.00
44933;PMS3003;30667;43.614;1.442;2023-04-24T09:36:50;2.00;1.20;0.00
44933;PMS3003;30667;43.614;1.442;2023-04-24T09:39:16;1.20;1.00;0.00
44933;PMS3003;30667;43.614;1.442;2023-04-24T09:41:49;1.00;1.00;0.00
44933;PMS3003;30667;43.614;1.442;2023-04-24T09:46:49;1.00;1.00;0.00
44933;PMS3003;30667;43.614;1.442;2023-04-24T09:49:30;1.60;1.60;0.00
44933;PMS3003;30667;43.614;1.442;2023-04-24T09:52:04;2.00;1.20;0.00
44933;PMS3003;30667;43.614;1.442;2023-04-24T09:54:29;2.40;1.00;0.00
44933;PMS3003;30667;43.614;1.442;2023-04-24T09:56:55;1.20;1.00;0.00
44933;PMS3003;30667;43.614;1.442;2023-04-24T09:59:21;1.00;1.00;0.00
44933;PMS3003;30667;43.614;1.442;2023-04-24T10:01:47;2.00;1.00;0.00
44933;PMS3003;30667;43.614;1.442;2023-04-24T10:06:50;1.00;1.00;0.00
44933;PMS3003;30667;43.614;1.442;2023-04-24T10:09:17;0.60;0.60;0.00
44933;PMS3003;30667;43.614;1.442;2023-04-24T10:11:44;1.00;1.00;0.00
44933;PMS3003;30667;43.614;1.442;2023-04-24T10:14:15;1.20;1.00;0.00
44933;PMS3003;30667;43.614;1.442;2023-04-24T10:16:43;2.40;2.00;0.00
44933;PMS3003;30667;43.614;1.442;2023-04-24T10:19:11;2.80;2.00;0.00
44933;PMS3003;30667;43.614;1.442;2023-04-24T10:21:38;2.00;2.00;0.00
44933;PMS3003;30667;43.614;1.442;2023-04-24T10:24:07;1.80;1.80;0.00
44933;PMS3003;30667;43.614;1.442;2023-04-24T10:26:34;1.00;1.00;0.00
44933;PMS3003;30667;43.614;1.442;2023-04-24T10:29:00;1.20;1.00;0.00
44933;PMS3003;30667;43.614;1.442;2023-04-24T10:31:26;2.60;1.00;0.00
44933;PMS3003;30667;43.614;1.442;2023-04-24T10:33:56;1.40;1.00;0.00
44933;PMS3003;30667;43.614;1.442;2023-04-24T10:36:22;2.00;2.00;0.00
44933;PMS3003;30667;43.614;1.442;2023-04-24T10:38:51;1.20;1.20;0.00
44933;PMS3003;30667;43.614;1.442;2023-04-24T10:41:19;1.60;1.60;0.00
44933;PMS3003;30667;43.614;1.442;2023-04-24T10:43:48;2.00;2.00;0.00
44933;PMS3003;30667;43.614;1.442;2023-04-24T10:46:19;1.60;1.60;0.00
44933;PMS3003;30667;43.614;1.442;2023-04-24T10:48:53;2.00;1.00;0.00
44933;PMS3003;30667;43.614;1.442;2023-04-24T10:51:21;3.40;1.80;0.00
44933;PMS3003;30667;43.614;1.442;2023-04-24T10:53:47;1.80;1.80;0.00
44933;PMS3003;30667;43.614;1.442;2023-04-24T10:56:15;2.20;1.00;0.00
44933;PMS3003;30667;43.614;1.442;2023-04-24T10:58:51;2.00;2.00;0.00
44933;PMS3003;30667;43.614;1.442;2023-04-24T11:01:25;4.20;3.20;0.80
44933;PMS3003;30667;43.614;1.442;2023-04-24T11:03:56;2.00;2.00;0.00
44933;PMS3003;30667;43.614;1.442;2023-04-24T11:06:29;2.00;2.00;0.00
44933;PMS3003;30667;43.614;1.442;2023-04-24T11:09:09;3.00;2.00;0.00
44933;PMS3003;30667;43.614;1.442;2023-04-24T11:11:38;2.20;1.00;0.00
44933;PMS3003;30667;43.614;1.442;2023-04-24T11:14:09;1.00;1.00;0.00
44933;PMS3003;30667;43.614;1.442;2023-04-24T11:16:39;1.00;1.00;0.00
44933;PMS3003;30667;43.614;1.442;2023-04-24T11:21:44;1.60;1.40;0.00
44933;PMS3003;30667;43.614;1.442;2023-04-24T11:24:25;1.20;1.20;0.00
44933;PMS3003;30667;43.614;1.442;2023-04-24T11:29:38;1.00;1.00;0.00
44933;PMS3003;30667;43.614;1.442;2023-04-24T11:32:14;2.00;2.00;0.00
44933;PMS3003;30667;43.614;1.442;2023-04-24T11:35:06;2.20;1.60;0.00
44933;PMS3003;30667;43.614;1.442;2023-04-24T11:37:37;1.00;1.00;0.00
44933;PMS3003;30667;43.614;1.442;2023-04-24T11:40:04;2.00;2.00;0.20
44933;PMS3003;30667;43.614;1.442;2023-04-24T11:42:34;2.00;2.00;0.00
44933;PMS3003;30667;43.614;1.442;2023-04-24T11:45:01;1.00;1.00;0.00
44933;PMS3003;30667;43.614;1.442;2023-04-24T11:47:27;1.20;1.00;0.00
44933;PMS3003;30667;43.614;1.442;2023-04-24T11:49:58;2.00;2.00;0.00
44933;PMS3003;30667;43.614;1.442;2023-04-24T11:52:24;2.00;2.00;0.60
44933;PMS3003;30667;43.614;1.442;2023-04-24T11:54:50;1.50;1.00;0.00
44933;PMS3003;30667;43.614;1.442;2023-04-24T11:57:15;2.00;2.00;0.00
44933;PMS3003;30667;43.614;1.442;2023-04-24T11:59:41;1.00;1.00;0.00
44933;PMS3003;30667;43.614;1.442;2023-04-24T12:02:07;1.00;1.00;0.00
44933;PMS3003;30667;43.614;1.442;2023-04-24T12:04:39;1.75;1.25;0.00
44933;PMS3003;30667;43.614;1.442;2023-04-24T12:07:05;2.20;2.00;0.00
44933;PMS3003;30667;43.614;1.442;2023-04-24T12:09:42;1.20;1.20;0.00
44933;PMS3003;30667;43.614;1.442;2023-04-24T12:12:08;2.00;1.40;0.00
44933;PMS3003;30667;43.614;1.442;2023-04-24T12:17:08;1.00;1.00;0.00
44933;PMS3003;30667;43.614;1.442;2023-04-24T12:19:34;1.75;1.00;0.00
44933;PMS3003;30667;43.614;1.442;2023-04-24T12:22:00;2.00;2.00;0.00
44933;PMS3003;30667;43.614;1.442;2023-04-24T12:24:30;2.00;1.60;0.00
44933;PMS3003;30667;43.614;1.442;2023-04-24T12:26:55;1.25;1.25;0.00
44933;PMS3003;30667;43.614;1.442;2023-04-24T12:29:23;2.00;2.00;0.00
44933;PMS3003;30667;43.614;1.442;2023-04-24T12:31:53;1.80;1.20;0.00
44933;PMS3003;30667;43.614;1.442;2023-04-24T12:34:19;2.00;2.00;0.00
44933;PMS3003;30667;43.614;1.442;2023-04-24T12:36:47;2.60;2.00;0.20
44933;PMS3003;30667;43.614;1.442;2023-04-24T12:39:16;2.60;1.60;0.00
44933;PMS3003;30667;43.614;1.442;2023-04-24T12:41:54;2.00;2.00;0.00
44933;PMS3003;30667;43.614;1.442;2023-04-24T12:44:28;1.40;1.00;0.00
44933;PMS3003;30667;43.614;1.442;2023-04-24T12:46:54;1.00;1.00;0.00
44933;PMS3003;30667;43.614;1.442;2023-04-24T12:49:19;1.50;1.50;0.00
44933;PMS3003;30667;43.614;1.442;2023-04-24T12:51:45;1.50;1.25;0.00
44933;PMS3003;30667;43.614;1.442;2023-04-24T12:54:10;0.50;0.50;0.00
44933;PMS3003;30667;43.614;1.442;2023-04-24T12:56:36;2.80;2.00;0.00
44933;PMS3003;30667;43.614;1.442;2023-04-24T12:59:04;1.00;1.00;0.00
44933;PMS3003;30667;43.614;1.442;2023-04-24T13:01:30;1.00;1.00;0.00
44933;PMS3003;30667;43.614;1.442;2023-04-24T13:03:55;1.25;1.00;0.00
44933;PMS3003;30667;43.614;1.442;2023-04-24T13:06:21;1.50;1.50;0.00
44933;PMS3003;30667;43.614;1.442;2023-04-24T13:08:46;1.00;1.00;0.00
44933;PMS3003;30667;43.614;1.442;2023-04-24T13:11:12;0.80;0.20;0.00
44933;PMS3003;30667;43.614;1.442;2023-04-24T13:13:38;1.00;1.00;0.00
44933;PMS3003;30667;43.614;1.442;2023-04-24T13:16:03;1.00;0.75;0.00
44933;PMS3003;30667;43.614;1.442;2023-04-24T13:18:29;1.25;1.00;0.00
44933;PMS3003;30667;43.614;1.442;2023-04-24T13:20:55;2.00;1.25;0.00
44933;PMS3003;30667;43.614;1.442;2023-04-24T13:23:20;1.00;1.00;0.00
44933;PMS3003;30667;43.614;1.442;2023-04-24T13:25:46;1.00;1.00;0.00
44933;PMS3003;30667;43.614;1.442;2023-04-24T13:28:12;1.00;1.00;0.00
44933;PMS3003;30667;43.614;1.442;2023-04-24T13:30:37;1.00;1.00;0.00
44933;PMS3003;30667;43.614;1.442;2023-04-24T13:33:03;1.25;1.00;0.00
44933;PMS3003;30667;43.614;1.442;2023-04-24T13:35:28;1.25;1.25;0.00
44933;PMS3003;30667;43.614;1.442;2023-04-24T13:37:54;2.50;1.50;0.00
44933;PMS3003;30667;43.614;1.442;2023-04-24T13:40:20;1.00;1.00;0.00
44933;PMS3003;30667;43.614;1.442;2023-04-24T13:42:45;1.00;1.00;0.00
44933;PMS3003;30667;43.614;1.442;2023-04-24T13:45:10;1.50;1.00;0.00
44933;PMS3003;30667;43.614;1.442;2023-04-24T13:47:36;2.00;1.50;0.00
44933;PMS3003;30667;43.614;1.442;2023-04-24T13:50:02;1.25;1.25;0.00
44933;PMS3003;30667;43.614;1.442;2023-04-24T13:52:28;1.80;1.80;0.00
44933;PMS3003;30667;43.614;1.442;2023-04-24T13:54:53;2.00;2.00;0.00
44933;PMS3003;30667;43.614;1.442;2023-04-24T13:57:18;1.75;1.75;0.00
44933;PMS3003;30667;43.614;1.442;2023-04-24T13:59:44;1.00;1.00;0.00
44933;PMS3003;30667;43.614;1.442;2023-04-24T14:02:10;1.00;1.00;0.00
44933;PMS3003;30667;43.614;1.442;2023-04-24T14:04:35;3.25;2.50;0.25
44933;PMS3003;30667;43.614;1.442;2023-04-24T14:07:01;2.00;2.00;0.00
44933;PMS3003;30667;43.614;1.442;2023-04-24T14:09:26;2.00;2.00;0.00
44933;PMS3003;30667;43.614;1.442;2023-04-24T14:11:52;2.00;1.00;0.00
44933;PMS3003;30667;43.614;1.442;2023-04-24T14:14:17;1.00;1.00;0.00
44933;PMS3003;30667;43.614;1.442;2023-04-24T14:16:43;2.00;1.00;0.00
44933;PMS3003;30667;43.614;1.442;2023-04-24T14:19:08;3.75;3.00;0.00
44933;PMS3003;30667;43.614;1.442;2023-04-24T14:21:33;1.00;1.00;0.00
44933;PMS3003;30667;43.614;1.442;2023-04-24T14:23:59;1.00;1.00;0.00
44933;PMS3003;30667;43.614;1.442;2023-04-24T14:26:25;3.00;1.00;0.00
44933;PMS3003;30667;43.614;1.442;2023-04-24T14:28:50;1.75;1.50;0.00